Delta Virtual Airport Information Service

Long Beach Airport

ICAO: KLGB Country: United States
Latitude: 33.8177 Longitude: -118.151
Latest Arrival : JBU2660631 (KPDX-KLGB) Latest Departure : JBU2660631 (KLGB-KAUS)


WX CaptureLIVE
Data provided by noaa.gov | Fetched at 11:54:47

METAR : KLGB 281553Z 15004KT 6SM HZ OVC011 18/14 A2995 RMK AO2 SLP142 T01780139

TAF : KLGB 281158Z 2812/2912 VRB03KT P6SM OVC010 FM281600 VRB03KT P6SM BKN014 FM281900 20008KT P6SM FEW015 FM290000 30008KT P6SM SKC FM290400 VRB03KT P6SM BKN009 FM290900 16004KT P6SM OVC013


Runway Data for KLGB
Data provided by openaviationdata.com

Runway ID Mag Var Hdg Length Elevation Surface ILS Freq ILS Id ILS Slope
07L 13 76° 6186 ft 60 ft Asphalt -- -- --
07R 13 76° 5413 ft 60 ft Asphalt -- -- --
12 13 121° 10003 ft 60 ft Asphalt -- -- --
16L 13 166° 4274 ft 60 ft Asphalt -- -- --
16R 13 166° 4479 ft 60 ft Asphalt -- -- --
25L 13 256° 5413 ft 60 ft Asphalt -- -- --
25R 13 256° 6186 ft 60 ft Asphalt -- -- --
30 13 301° 10003 ft 60 ft Asphalt 110.3 ILGB 3
34L 13 346° 4479 ft 60 ft Asphalt -- -- --
34R 13 346° 4274 ft 60 ft Asphalt -- -- --

Long Beach Airport, United States
Use only for reference purposes



Not for navigational purposes.